Time;durP1;ratioP1;P1;durP2;ratioP2;P2;SDS_P1;SDS_P2;PMS_P1;PMS_P2;Temp;Humidity;BMP_temperature;BMP_pressure;BME280_temperature;BME280_humidity;BME280_pressure;Samples;Min_cycle;Max_cycle;Signal;HPM_P1;HPM_P2
2022/07/19 00:01:12;;;;;;;2.30;1.10;;;28.20;57.20;;;;;;5052074;28;20029;-69
2022/07/19 00:03:38;;;;;;;1.15;1.10;;;28.20;57.20;;;;;;5052102;28;20032;-69
2022/07/19 00:06:03;;;;;;;1.08;1.08;;;28.20;57.20;;;;;;5052047;28;20504;-69
2022/07/19 00:08:29;;;;;;;1.23;1.00;;;28.20;57.20;;;;;;5051464;28;20104;-69
2022/07/19 00:10:54;;;;;;;0.90;0.90;;;28.20;57.10;;;;;;5052053;28;20033;-69
2022/07/19 00:13:21;;;;;;;1.20;1.10;;;28.20;57.10;;;;;;5055561;28;20064;-69
2022/07/19 00:15:46;;;;;;;0.90;0.90;;;28.20;57.20;;;;;;5055699;28;20391;-69
2022/07/19 00:18:12;;;;;;;0.90;0.90;;;28.20;57.20;;;;;;5055564;28;20029;-69
2022/07/19 00:20:38;;;;;;;1.40;1.30;;;28.20;57.10;;;;;;5054366;28;20025;-69
2022/07/19 00:23:03;;;;;;;0.98;0.98;;;28.20;57.20;;;;;;5055508;28;20018;-69
2022/07/19 00:25:29;;;;;;;1.20;1.10;;;28.20;57.10;;;;;;5055626;28;20503;-69
2022/07/19 00:27:54;;;;;;;1.02;1.02;;;28.20;57.20;;;;;;5055364;28;20017;-69
2022/07/19 00:30:20;;;;;;;0.95;0.95;;;28.20;57.10;;;;;;5055505;28;20036;-69
2022/07/19 00:32:46;;;;;;;1.08;1.08;;;28.20;57.20;;;;;;5054028;28;20028;-69
2022/07/19 00:35:11;;;;;;;0.90;0.90;;;28.20;57.20;;;;;;5055364;28;20032;-69
2022/07/19 00:37:37;;;;;;;1.10;1.00;;;28.20;57.20;;;;;;5043855;28;20068;-69
2022/07/19 00:40:03;;;;;;;1.27;1.17;;;28.20;57.20;;;;;;5035211;28;20025;-69
2022/07/19 00:42:28;;;;;;;0.80;0.80;;;28.20;57.10;;;;;;5035253;28;20029;-69
2022/07/19 00:44:54;;;;;;;1.30;1.20;;;28.20;57.50;;;;;;5034161;28;20029;-69
2022/07/19 00:47:20;;;;;;;1.20;1.10;;;28.20;57.20;;;;;;5035098;28;20475;-69
2022/07/19 00:49:46;;;;;;;1.00;1.00;;;28.20;57.20;;;;;;5046480;28;20489;-69
2022/07/19 00:52:12;;;;;;;1.38;1.23;;;28.20;57.20;;;;;;5054621;28;20102;-69
2022/07/19 00:54:37;;;;;;;1.27;1.17;;;28.20;57.20;;;;;;5053576;28;20029;-69
2022/07/19 00:57:03;;;;;;;1.30;1.20;;;28.20;57.20;;;;;;5053797;28;20043;-69
2022/07/19 00:59:29;;;;;;;1.20;1.10;;;28.20;57.20;;;;;;5053590;28;20029;-69
2022/07/19 01:01:55;;;;;;;0.90;0.90;;;28.20;57.20;;;;;;5054808;28;20475;-69
2022/07/19 01:04:20;;;;;;;1.50;1.05;;;28.10;57.10;;;;;;5053614;28;20056;-69
2022/07/19 01:06:46;;;;;;;0.80;0.80;;;28.10;57.20;;;;;;5053104;28;20495;-69
2022/07/19 01:09:12;;;;;;;1.08;1.00;;;28.20;57.20;;;;;;5054549;28;20086;-69
2022/07/19 01:11:39;;;;;;;1.20;1.10;;;28.20;57.20;;;;;;5054400;28;20102;-69
2022/07/19 01:14:04;;;;;;;1.02;0.93;;;28.10;57.10;;;;;;5053268;28;20072;-69
2022/07/19 01:16:30;;;;;;;1.13;1.10;;;28.20;57.20;;;;;;5054463;28;20483;-69
2022/07/19 01:18:55;;;;;;;1.20;1.10;;;28.10;57.20;;;;;;5054497;28;20060;-69
2022/07/19 01:21:22;;;;;;;1.23;1.15;;;28.20;57.20;;;;;;5054304;28;20017;-69
2022/07/19 01:23:48;;;;;;;1.88;1.00;;;28.10;57.20;;;;;;5054108;28;20031;-69
2022/07/19 01:26:13;;;;;;;1.30;1.20;;;28.10;57.20;;;;;;5054445;28;20461;-69
2022/07/19 01:28:39;;;;;;;1.10;1.10;;;28.10;57.20;;;;;;5054170;28;20025;-69
2022/07/19 01:31:05;;;;;;;1.20;1.10;;;28.10;57.20;;;;;;5054290;28;20029;-69
2022/07/19 01:33:30;;;;;;;0.85;0.85;;;28.10;57.20;;;;;;5053982;28;20033;-69
2022/07/19 01:35:56;;;;;;;1.27;1.17;;;28.10;57.20;;;;;;5054026;28;20365;-69
2022/07/19 01:38:22;;;;;;;1.00;1.00;;;28.10;57.20;;;;;;5054080;28;20033;-69
2022/07/19 01:40:47;;;;;;;1.13;1.02;;;28.10;57.20;;;;;;5053921;28;20453;-69
2022/07/19 01:43:13;;;;;;;1.35;0.98;;;28.10;57.20;;;;;;5053901;28;20028;-69
2022/07/19 01:45:39;;;;;;;1.00;1.00;;;28.20;57.30;;;;;;5053909;28;20021;-69
2022/07/19 01:48:05;;;;;;;1.05;1.02;;;28.20;57.20;;;;;;5053796;28;20395;-69
2022/07/19 01:50:30;;;;;;;0.98;0.95;;;28.10;57.20;;;;;;5053702;28;20028;-69
2022/07/19 01:52:56;;;;;;;1.17;1.08;;;28.20;57.30;;;;;;5053729;28;20116;-69
2022/07/19 01:55:22;;;;;;;1.35;1.25;;;28.10;57.20;;;;;;5053893;28;20490;-69
2022/07/19 01:57:50;;;;;;;1.48;0.95;;;28.10;57.20;;;;;;5053734;28;20395;-69
2022/07/19 02:00:16;;;;;;;0.95;0.95;;;28.10;57.20;;;;;;5053858;28;20032;-69
2022/07/19 02:02:42;;;;;;;1.23;1.13;;;28.20;57.30;;;;;;5052443;28;20029;-69
2022/07/19 02:05:08;;;;;;;1.35;1.10;;;28.10;57.30;;;;;;5052258;28;20021;-69
2022/07/19 02:07:34;;;;;;;1.33;1.10;;;28.20;57.30;;;;;;5053504;28;20154;-69
2022/07/19 02:10:00;;;;;;;1.30;0.90;;;28.10;57.20;;;;;;5053575;28;20079;-69
2022/07/19 02:12:25;;;;;;;1.10;1.10;;;28.10;57.30;;;;;;5053286;28;20076;-69
2022/07/19 02:14:51;;;;;;;1.30;1.20;;;28.10;57.30;;;;;;5053332;28;20075;-69
2022/07/19 02:17:17;;;;;;;1.10;1.00;;;28.10;57.30;;;;;;5053235;28;20501;-69
2022/07/19 02:19:42;;;;;;;1.08;1.08;;;28.20;57.30;;;;;;5053207;28;20493;-69
2022/07/19 02:22:08;;;;;;;1.30;1.10;;;28.10;57.20;;;;;;5053143;28;20028;-69
2022/07/19 02:24:33;;;;;;;1.00;1.00;;;28.10;58.30;;;;;;5053084;28;20025;-69
2022/07/19 02:26:59;;;;;;;1.23;1.13;;;28.10;57.30;;;;;;5053396;28;20025;-69
2022/07/19 02:29:25;;;;;;;1.70;1.00;;;28.10;57.30;;;;;;5053111;28;20032;-69
2022/07/19 02:31:50;;;;;;;1.23;1.13;;;28.10;57.30;;;;;;5052985;28;20039;-69
2022/07/19 02:34:16;;;;;;;1.02;1.02;;;28.10;57.30;;;;;;5052140;28;20064;-69
2022/07/19 02:36:41;;;;;;;1.30;1.20;;;28.10;57.20;;;;;;5052912;28;20025;-69
2022/07/19 02:39:07;;;;;;;1.60;1.00;;;28.10;57.20;;;;;;5036568;28;20112;-69
2022/07/19 02:41:33;;;;;;;1.30;1.20;;;28.10;57.20;;;;;;5033189;28;20025;-69
2022/07/19 02:43:58;;;;;;;1.17;1.08;;;28.10;57.20;;;;;;5033165;28;20021;-69
2022/07/19 02:46:24;;;;;;;1.05;1.00;;;28.10;57.30;;;;;;5032893;28;20029;-69
2022/07/19 02:48:49;;;;;;;0.90;0.90;;;28.10;57.20;;;;;;5037667;28;20222;-69
2022/07/19 02:51:15;;;;;;;1.17;1.13;;;28.10;57.30;;;;;;5052664;28;20053;-69
2022/07/19 02:53:41;;;;;;;1.00;1.00;;;28.10;57.30;;;;;;5052633;28;20487;-69
2022/07/19 02:56:06;;;;;;;1.27;1.17;;;28.10;57.30;;;;;;5052791;28;20025;-69
2022/07/19 02:58:32;;;;;;;1.20;1.10;;;28.10;57.30;;;;;;5052443;28;20414;-69
2022/07/19 03:00:57;;;;;;;1.40;1.08;;;28.10;57.30;;;;;;5052624;28;20032;-69
2022/07/19 03:06:08;;;;;;;1.10;1.00;;;28.10;57.20;;;;;;5052656;28;20043;-69
2022/07/19 03:08:33;;;;;;;1.17;0.95;;;28.10;57.20;;;;;;5052456;28;20017;-69
2022/07/19 03:10:59;;;;;;;1.05;1.00;;;28.10;57.20;;;;;;5052401;28;20055;-69
2022/07/19 03:13:24;;;;;;;0.95;0.90;;;28.10;57.20;;;;;;5052314;28;20437;-69
2022/07/19 03:15:50;;;;;;;1.17;1.08;;;28.10;57.20;;;;;;5051967;28;20403;-69
2022/07/19 03:18:16;;;;;;;1.02;0.93;;;28.10;57.30;;;;;;5051396;28;20021;-69
2022/07/19 03:20:41;;;;;;;1.20;1.10;;;28.10;57.20;;;;;;5052375;28;20079;-69
2022/07/19 03:23:07;;;;;;;2.13;1.30;;;28.10;57.20;;;;;;5052324;28;20032;-69
2022/07/19 03:25:33;;;;;;;1.60;1.20;;;28.10;57.20;;;;;;5051065;28;20025;-69
2022/07/19 03:27:59;;;;;;;4.07;1.10;;;28.10;57.20;;;;;;5052198;28;20076;-69
2022/07/19 03:30:24;;;;;;;1.05;1.02;;;28.10;57.20;;;;;;5052169;28;20056;-69
2022/07/19 03:32:50;;;;;;;1.40;1.27;;;28.10;57.20;;;;;;5052216;28;20021;-69
2022/07/19 03:35:15;;;;;;;1.13;1.13;;;28.10;57.20;;;;;;5052197;28;20036;-69
2022/07/19 03:37:41;;;;;;;1.30;1.20;;;28.10;57.20;;;;;;5052083;28;20032;-69
2022/07/19 03:40:07;;;;;;;1.52;1.00;;;28.10;57.20;;;;;;5052065;28;20543;-69
2022/07/19 03:42:33;;;;;;;1.52;1.30;;;28.10;57.30;;;;;;5052504;28;20029;-69
2022/07/19 03:44:59;;;;;;;2.55;0.98;;;28.10;57.20;;;;;;5051095;28;20025;-69
2022/07/19 03:47:24;;;;;;;1.00;1.00;;;28.10;57.20;;;;;;5054997;28;20032;-69
2022/07/19 03:49:50;;;;;;;1.52;1.25;;;28.10;57.20;;;;;;5054873;28;20020;-69
2022/07/19 03:52:15;;;;;;;1.20;1.10;;;28.10;57.20;;;;;;5056126;28;20083;-69
2022/07/19 03:54:41;;;;;;;2.75;1.35;;;28.00;57.10;;;;;;5054556;28;20083;-69
2022/07/19 03:57:07;;;;;;;1.20;1.10;;;28.10;57.20;;;;;;5056181;28;20483;-69
2022/07/19 03:59:32;;;;;;;1.83;1.20;;;28.00;57.10;;;;;;5055749;28;20107;-69
2022/07/19 04:01:58;;;;;;;1.10;1.00;;;28.00;57.10;;;;;;5055893;28;20103;-69
2022/07/19 04:04:23;;;;;;;1.20;1.10;;;28.10;57.20;;;;;;5055903;28;20116;-69
2022/07/19 04:06:49;;;;;;;1.33;1.20;;;28.00;57.20;;;;;;5054647;28;20032;-69
2022/07/19 04:09:15;;;;;;;1.15;0.98;;;28.00;57.20;;;;;;5055620;28;20021;-69
2022/07/19 04:11:40;;;;;;;1.60;1.50;;;28.10;57.20;;;;;;5054691;28;20048;-69
2022/07/19 04:14:06;;;;;;;1.20;1.10;;;28.00;57.20;;;;;;5055357;28;20078;-69
2022/07/19 04:16:32;;;;;;;1.35;1.20;;;28.10;57.20;;;;;;5055767;28;20025;-69
2022/07/19 04:18:57;;;;;;;1.25;1.20;;;28.10;57.20;;;;;;5055605;28;20075;-69
2022/07/19 04:21:23;;;;;;;1.27;1.17;;;28.00;57.20;;;;;;5055658;28;20494;-69
2022/07/19 04:23:49;;;;;;;1.40;1.30;;;28.00;57.10;;;;;;5055595;28;20021;-69
2022/07/19 04:26:14;;;;;;;1.80;1.40;;;28.00;57.10;;;;;;5055618;28;20036;-69
2022/07/19 04:28:40;;;;;;;3.05;1.85;;;28.00;57.10;;;;;;5053889;28;20033;-69
2022/07/19 04:31:05;;;;;;;1.50;1.33;;;28.00;57.00;;;;;;5055541;28;20033;-69
2022/07/19 04:33:31;;;;;;;1.83;1.70;;;28.00;57.10;;;;;;5054273;28;20044;-69
2022/07/19 04:35:57;;;;;;;1.73;1.60;;;28.00;57.00;;;;;;5054121;28;20037;-69
2022/07/19 04:38:22;;;;;;;1.90;1.70;;;28.00;57.10;;;;;;5053711;28;20092;-69
2022/07/19 04:40:48;;;;;;;1.83;1.73;;;28.00;57.00;;;;;;5033798;28;20040;-69
2022/07/19 04:43:15;;;;;;;1.65;1.55;;;28.00;57.00;;;;;;5035173;28;20029;-69
2022/07/19 04:45:41;;;;;;;1.83;1.70;;;28.00;57.00;;;;;;5034062;28;20091;-69
2022/07/19 04:48:07;;;;;;;2.00;1.88;;;28.00;56.90;;;;;;5035169;28;20068;-69
2022/07/19 04:50:33;;;;;;;2.20;2.00;;;28.00;56.90;;;;;;5053817;28;20033;-69
2022/07/19 04:52:59;;;;;;;2.00;1.90;;;28.00;57.00;;;;;;5054894;28;20025;-69
2022/07/19 04:55:24;;;;;;;2.20;2.00;;;28.00;56.90;;;;;;5054987;28;20032;-69
2022/07/19 04:57:50;;;;;;;2.05;1.95;;;28.00;56.90;;;;;;5053781;28;20025;-69
2022/07/19 05:00:15;;;;;;;2.08;1.92;;;28.00;56.90;;;;;;5055011;28;20025;-69
2022/07/19 05:02:41;;;;;;;2.42;2.22;;;28.00;56.90;;;;;;5053642;28;20029;-69
2022/07/19 05:05:07;;;;;;;2.08;1.98;;;28.00;57.80;;;;;;5054657;28;20021;-69
2022/07/19 05:07:33;;;;;;;2.15;1.95;;;28.00;56.80;;;;;;5053549;28;20032;-69
2022/07/19 05:09:58;;;;;;;2.53;2.33;;;28.00;56.80;;;;;;5054510;28;20606;-69
2022/07/19 05:12:24;;;;;;;2.65;2.45;;;28.00;56.70;;;;;;5054471;28;20086;-69
2022/07/19 05:14:49;;;;;;;2.55;2.35;;;28.00;56.80;;;;;;5054355;28;20483;-69
2022/07/19 05:17:15;;;;;;;2.72;2.40;;;28.00;56.90;;;;;;5054444;28;20135;-69
2022/07/19 05:19:41;;;;;;;2.25;2.15;;;27.90;56.80;;;;;;5054533;28;20049;-69
2022/07/19 05:22:07;;;;;;;3.03;2.72;;;27.90;56.80;;;;;;5053316;28;20036;-69
2022/07/19 05:24:32;;;;;;;2.60;2.40;;;27.90;56.70;;;;;;5053267;28;20036;-69
2022/07/19 05:26:58;;;;;;;2.85;2.65;;;27.90;56.80;;;;;;5053038;28;20530;-69
2022/07/19 05:29:24;;;;;;;2.88;2.67;;;27.90;56.80;;;;;;5054228;28;20383;-69
2022/07/19 05:31:49;;;;;;;2.65;2.45;;;27.90;56.70;;;;;;5054208;28;20029;-69
2022/07/19 05:34:15;;;;;;;2.53;2.40;;;27.90;56.80;;;;;;5054263;28;20040;-69
2022/07/19 05:36:41;;;;;;;3.10;2.80;;;27.90;56.70;;;;;;5052862;28;20020;-69
2022/07/19 05:39:06;;;;;;;2.55;2.40;;;27.90;56.70;;;;;;5054067;28;20052;-69
2022/07/19 05:41:32;;;;;;;2.90;2.70;;;27.90;56.70;;;;;;5053738;28;20025;-69
2022/07/19 05:43:58;;;;;;;2.83;2.53;;;27.90;56.80;;;;;;5053930;28;20546;-69
2022/07/19 05:46:23;;;;;;;2.80;2.60;;;27.90;56.80;;;;;;5052875;28;20399;-69
2022/07/19 05:48:49;;;;;;;3.00;2.80;;;27.90;56.80;;;;;;5054107;28;20057;-69
2022/07/19 05:51:15;;;;;;;2.85;2.65;;;27.90;56.80;;;;;;5053787;28;20040;-69
2022/07/19 05:53:41;;;;;;;2.75;2.55;;;27.90;56.80;;;;;;5053943;28;20471;-69
2022/07/19 05:56:07;;;;;;;3.00;2.80;;;27.90;56.80;;;;;;5053436;28;20482;-69
2022/07/19 05:58:32;;;;;;;3.15;2.95;;;27.90;56.80;;;;;;5053880;28;20025;-69
2022/07/19 06:03:42;;;;;;;3.85;2.72;;;27.90;56.80;;;;;;5053882;28;20083;-69
2022/07/19 06:06:08;;;;;;;2.88;2.63;;;27.90;56.80;;;;;;5053554;28;20028;-69
2022/07/19 06:08:33;;;;;;;3.05;2.80;;;27.90;56.90;;;;;;5053536;28;20441;-69
2022/07/19 06:10:59;;;;;;;3.00;2.80;;;27.90;56.80;;;;;;5051834;28;20017;-69
2022/07/19 06:13:25;;;;;;;3.05;2.85;;;27.90;56.90;;;;;;5052208;28;20032;-69
2022/07/19 06:15:50;;;;;;;3.00;2.80;;;27.90;56.90;;;;;;5053280;28;20391;-69
2022/07/19 06:18:16;;;;;;;3.10;2.90;;;27.90;56.90;;;;;;5053430;28;20387;-69
2022/07/19 06:20:42;;;;;;;3.10;2.80;;;27.90;56.90;;;;;;5053290;28;20383;-69
2022/07/19 06:23:08;;;;;;;3.50;3.00;;;27.90;56.90;;;;;;5053193;28;20117;-69
2022/07/19 06:25:34;;;;;;;3.47;3.25;;;27.90;56.90;;;;;;5053051;28;20110;-69
2022/07/19 06:28:00;;;;;;;3.20;2.90;;;27.90;56.80;;;;;;5053095;28;20024;-69
2022/07/19 06:30:25;;;;;;;3.25;2.95;;;27.90;56.90;;;;;;5053196;28;20029;-69
2022/07/19 06:32:51;;;;;;;3.15;2.92;;;27.90;56.90;;;;;;5051755;28;20394;-69
2022/07/19 06:35:17;;;;;;;3.13;2.92;;;27.90;56.90;;;;;;5053058;28;20031;-69
2022/07/19 06:37:42;;;;;;;3.22;3.03;;;27.90;57.00;;;;;;5051861;28;20025;-69
2022/07/19 06:40:08;;;;;;;3.10;2.90;;;27.80;56.90;;;;;;5052484;28;20108;-69
2022/07/19 06:42:34;;;;;;;3.00;2.80;;;27.80;56.90;;;;;;5033260;28;20422;-69
2022/07/19 06:45:01;;;;;;;3.47;3.17;;;27.80;57.00;;;;;;5033038;28;20452;-69
2022/07/19 06:47:28;;;;;;;3.20;3.00;;;27.80;56.90;;;;;;5032944;28;20035;-69
2022/07/19 06:49:53;;;;;;;2.95;2.75;;;27.80;56.90;;;;;;5046189;28;20402;-69
2022/07/19 06:52:19;;;;;;;2.97;2.78;;;27.90;57.10;;;;;;5052642;28;20105;-69
2022/07/19 06:54:45;;;;;;;3.10;2.78;;;27.90;57.10;;;;;;5052329;28;20032;-69
2022/07/19 06:57:10;;;;;;;3.10;2.90;;;27.80;56.90;;;;;;5051510;28;20475;-69
2022/07/19 06:59:36;;;;;;;3.08;2.88;;;27.80;56.90;;;;;;5052726;28;20028;-69
2022/07/19 07:02:03;;;;;;;3.30;3.10;;;27.80;57.00;;;;;;5052616;28;20502;-69
2022/07/19 07:04:28;;;;;;;3.20;2.97;;;27.80;56.90;;;;;;5052918;28;20048;-69
2022/07/19 07:06:54;;;;;;;3.15;2.88;;;27.80;57.00;;;;;;5052454;28;20446;-69
2022/07/19 07:09:20;;;;;;;3.30;3.10;;;27.80;57.10;;;;;;5052325;28;20373;-69
2022/07/19 07:11:45;;;;;;;3.25;3.05;;;27.80;57.00;;;;;;5052222;28;20507;-69
2022/07/19 07:14:11;;;;;;;3.20;3.00;;;27.80;57.00;;;;;;5052373;28;20518;-69
2022/07/19 07:16:37;;;;;;;3.40;3.17;;;27.80;57.00;;;;;;5052433;28;20474;-69
2022/07/19 07:19:02;;;;;;;3.20;3.00;;;27.80;57.00;;;;;;5052449;28;20017;-69
2022/07/19 07:21:29;;;;;;;3.35;3.05;;;27.80;57.00;;;;;;5052006;28;20044;-69
2022/07/19 07:23:55;;;;;;;3.55;3.25;;;27.80;57.10;;;;;;5052260;28;20521;-69
2022/07/19 07:26:21;;;;;;;3.15;2.90;;;27.80;57.20;;;;;;5050910;28;20057;-69
2022/07/19 07:28:46;;;;;;;3.30;3.00;;;27.80;57.20;;;;;;5051165;28;20025;-69
2022/07/19 07:31:12;;;;;;;3.00;2.80;;;27.80;57.20;;;;;;5034530;28;20368;-69
2022/07/19 07:33:38;;;;;;;3.38;3.08;;;27.80;57.20;;;;;;5052361;28;20029;-69
2022/07/19 07:36:03;;;;;;;3.38;3.17;;;27.80;57.20;;;;;;5052240;28;20028;-69
2022/07/19 07:38:29;;;;;;;3.08;2.88;;;27.80;57.20;;;;;;5052093;28;20024;-69
2022/07/19 07:40:56;;;;;;;2.95;2.75;;;27.80;57.30;;;;;;5051990;28;20025;-69
2022/07/19 07:43:21;;;;;;;3.20;3.00;;;27.80;57.30;;;;;;5052250;28;20098;-69
2022/07/19 07:45:47;;;;;;;3.17;2.97;;;27.80;57.30;;;;;;5051055;28;20064;-69
2022/07/19 07:48:13;;;;;;;3.20;3.00;;;27.80;57.20;;;;;;5051938;28;20031;-69
2022/07/19 07:50:38;;;;;;;3.40;3.10;;;27.80;57.30;;;;;;5051975;28;20032;-69
2022/07/19 07:53:04;;;;;;;3.05;2.85;;;27.80;57.40;;;;;;5051816;28;20390;-69
2022/07/19 07:55:30;;;;;;;3.03;2.83;;;27.80;57.30;;;;;;5052103;28;20021;-69
2022/07/19 07:57:55;;;;;;;3.30;3.10;;;27.80;57.30;;;;;;5051982;28;20023;-69
2022/07/19 08:00:21;;;;;;;3.50;3.20;;;27.80;57.30;;;;;;5052021;28;20056;-69
2022/07/19 08:02:48;;;;;;;3.10;2.90;;;27.80;57.30;;;;;;5051887;28;20104;-69
2022/07/19 08:05:14;;;;;;;3.20;3.00;;;27.80;57.30;;;;;;5050676;28;20025;-69
2022/07/19 08:07:40;;;;;;;3.08;2.88;;;27.80;57.30;;;;;;5051722;28;20372;-69
2022/07/19 08:10:07;;;;;;;3.33;3.13;;;27.70;57.30;;;;;;5051912;28;20395;-69
2022/07/19 08:12:33;;;;;;;3.35;3.10;;;27.70;57.20;;;;;;5051546;28;20032;-69
2022/07/19 08:14:58;;;;;;;3.13;2.92;;;27.70;57.30;;;;;;5051859;28;20448;-69
2022/07/19 08:17:24;;;;;;;2.95;2.75;;;27.70;57.20;;;;;;5051851;28;20487;-69
2022/07/19 08:19:50;;;;;;;3.50;3.20;;;27.70;57.20;;;;;;5051548;28;20079;-69
2022/07/19 08:22:16;;;;;;;3.22;2.97;;;27.70;57.20;;;;;;5051838;28;20021;-69
2022/07/19 08:24:42;;;;;;;3.00;2.80;;;27.70;57.30;;;;;;5051795;28;20021;-69
2022/07/19 08:27:08;;;;;;;3.20;2.90;;;27.70;57.30;;;;;;5051702;28;20114;-69
2022/07/19 08:29:33;;;;;;;3.13;2.92;;;27.70;57.30;;;;;;5050619;28;20501;-69
2022/07/19 08:31:59;;;;;;;2.95;2.75;;;27.70;57.30;;;;;;5051962;28;20483;-69
2022/07/19 08:34:25;;;;;;;2.90;2.70;;;27.70;57.30;;;;;;5055096;28;20119;-69
2022/07/19 08:36:50;;;;;;;3.30;3.10;;;27.70;57.30;;;;;;5055508;28;20103;-69
2022/07/19 08:39:16;;;;;;;3.08;2.88;;;27.70;57.30;;;;;;5055104;28;20395;-69
2022/07/19 08:41:44;;;;;;;3.00;2.80;;;27.70;57.20;;;;;;5055249;28;20072;-69
2022/07/19 08:44:10;;;;;;;3.15;2.95;;;27.70;57.30;;;;;;5035073;28;20025;-69
2022/07/19 08:46:36;;;;;;;3.13;2.92;;;27.70;57.30;;;;;;5034143;28;20021;-69
2022/07/19 08:49:02;;;;;;;3.15;2.95;;;27.70;57.30;;;;;;5040167;28;20036;-69
2022/07/19 08:51:28;;;;;;;3.60;3.38;;;27.70;57.30;;;;;;5054982;28;20079;-69
2022/07/19 08:53:53;;;;;;;3.03;2.83;;;27.70;57.40;;;;;;5053769;28;20407;-69
2022/07/19 08:59:03;;;;;;;3.13;2.92;;;27.70;57.30;;;;;;5053975;28;20076;-69
2022/07/19 09:01:29;;;;;;;3.10;2.90;;;27.70;57.30;;;;;;5054912;28;20044;-69
2022/07/19 09:04:08;;;;;;;3.15;2.95;;;27.70;57.30;;;;;;5054567;28;20091;-69
2022/07/19 09:06:45;;;;;;;3.38;3.15;;;27.70;57.30;;;;;;5054925;28;20538;-69
2022/07/19 09:09:11;;;;;;;3.10;2.90;;;27.70;57.30;;;;;;5054611;28;20036;-69
2022/07/19 09:11:38;;;;;;;3.50;3.20;;;27.70;57.30;;;;;;5054665;28;20548;-69
2022/07/19 09:14:08;;;;;;;3.20;3.00;;;27.70;57.30;;;;;;5054439;28;20083;-69
2022/07/19 09:17:06;;;;;;;3.28;3.08;;;27.70;57.40;;;;;;5054733;28;20029;-69
2022/07/19 09:19:36;;;;;;;3.10;2.90;;;27.70;57.30;;;;;;5054344;28;20398;-69
2022/07/19 09:22:28;;;;;;;3.47;3.28;;;27.70;57.30;;;;;;5036792;28;20114;-69
2022/07/19 09:24:53;;;;;;;3.10;2.90;;;27.70;57.30;;;;;;5053478;28;20037;-69
2022/07/19 09:27:25;;;;;;;3.30;3.10;;;27.70;57.40;;;;;;5054391;28;20048;-69
2022/07/19 09:29:55;;;;;;;3.42;3.13;;;27.70;57.30;;;;;;5054416;28;20025;-69
2022/07/19 09:32:22;;;;;;;3.63;3.42;;;27.70;57.40;;;;;;5054042;28;20025;-69
2022/07/19 09:34:53;;;;;;;3.00;2.80;;;27.70;57.50;;;;;;5053025;28;20402;-69
2022/07/19 09:37:24;;;;;;;3.75;3.50;;;27.70;57.40;;;;;;5053991;28;20025;-69
2022/07/19 09:39:55;;;;;;;3.90;3.60;;;27.70;57.40;;;;;;5054297;28;20033;-69
2022/07/19 09:42:34;;;;;;;3.97;3.67;;;27.70;57.40;;;;;;5054024;28;20025;-69
2022/07/19 09:45:02;;;;;;;3.83;3.63;;;27.70;57.50;;;;;;5053830;28;20021;-69
2022/07/19 09:47:35;;;;;;;3.65;3.42;;;27.70;57.50;;;;;;5053713;28;20021;-69
2022/07/19 09:50:02;;;;;;;3.63;3.42;;;27.70;57.50;;;;;;5053969;28;20051;-69
2022/07/19 09:52:28;;;;;;;3.63;3.33;;;27.70;57.40;;;;;;5052802;28;20092;-69
2022/07/19 09:54:54;;;;;;;3.60;3.40;;;27.60;57.40;;;;;;5053817;28;20033;-69
2022/07/19 09:57:24;;;;;;;3.53;3.33;;;27.70;57.40;;;;;;5053780;28;20021;-69
2022/07/19 09:59:51;;;;;;;3.60;3.40;;;27.70;57.50;;;;;;5052753;28;20098;-69
2022/07/19 10:02:18;;;;;;;3.40;3.10;;;27.70;57.50;;;;;;5052526;28;20510;-69
2022/07/19 10:04:44;;;;;;;3.55;3.35;;;27.70;57.50;;;;;;5036147;28;20104;-69
2022/07/19 10:07:10;;;;;;;3.65;3.35;;;27.70;57.50;;;;;;5036003;28;20121;-69
2022/07/19 10:09:36;;;;;;;3.60;3.40;;;27.70;57.50;;;;;;5035971;28;20104;-69
2022/07/19 10:12:01;;;;;;;3.90;3.60;;;27.70;57.60;;;;;;5053416;28;20076;-69
2022/07/19 10:14:27;;;;;;;3.70;3.40;;;27.60;57.50;;;;;;5035632;28;20469;-69
2022/07/19 10:17:10;;;;;;;3.85;3.60;;;27.70;57.60;;;;;;5053320;28;20017;-69
2022/07/19 10:19:46;;;;;;;4.20;3.80;;;27.60;57.50;;;;;;5036442;28;20482;-69
2022/07/19 10:22:25;;;;;;;4.35;4.03;;;27.70;57.50;;;;;;5052046;28;20016;-69
2022/07/19 10:24:54;;;;;;;4.47;4.07;;;27.60;57.50;;;;;;5052473;28;20028;-69
2022/07/19 10:27:26;;;;;;;4.13;3.83;;;27.60;57.50;;;;;;5053321;28;20398;-69
2022/07/19 10:29:58;;;;;;;3.70;3.50;;;27.70;57.50;;;;;;5053237;28;20033;-69
2022/07/19 10:32:30;;;;;;;4.30;4.00;;;27.70;57.50;;;;;;5053166;28;20049;-69
2022/07/19 10:35:15;;;;;;;4.25;3.92;;;27.60;57.50;;;;;;5052028;28;20102;-69
2022/07/19 10:37:42;;;;;;;4.30;4.00;;;27.60;57.50;;;;;;5053266;28;20021;-69
2022/07/19 10:40:08;;;;;;;5.03;4.60;;;27.70;57.50;;;;;;5053022;28;20028;-69
2022/07/19 10:42:33;;;;;;;4.93;4.53;;;27.70;57.50;;;;;;5053053;28;20021;-69
2022/07/19 10:45:02;;;;;;;5.22;4.82;;;27.70;57.60;;;;;;5034848;28;20052;-69
2022/07/19 10:47:39;;;;;;;5.25;4.85;;;27.70;57.60;;;;;;5032993;28;20463;-69
2022/07/19 10:50:06;;;;;;;6.03;5.53;;;27.60;57.50;;;;;;5047900;28;20036;-69
2022/07/19 10:52:33;;;;;;;5.93;5.43;;;27.70;57.60;;;;;;5052975;28;20025;-69
2022/07/19 10:55:17;;;;;;;6.30;5.80;;;27.70;57.60;;;;;;5052097;28;20029;-69
2022/07/19 10:57:53;;;;;;;6.70;6.10;;;27.60;57.60;;;;;;5052954;28;20021;-69
2022/07/19 11:00:23;;;;;;;6.93;6.32;;;27.60;57.50;;;;;;5052538;28;20031;-69
2022/07/19 11:02:49;;;;;;;7.32;6.72;;;27.60;57.50;;;;;;5051691;28;20075;-69
2022/07/19 11:05:28;;;;;;;7.80;6.97;;;27.70;57.60;;;;;;5051684;28;20475;-69
2022/07/19 11:07:54;;;;;;;8.65;7.82;;;27.60;57.50;;;;;;5052614;28;20021;-69
2022/07/19 11:10:25;;;;;;;10.23;9.07;;;27.60;57.50;;;;;;5051363;28;20031;-69
2022/07/19 11:12:51;;;;;;;8.65;7.85;;;27.60;57.50;;;;;;5052258;28;20045;-69
2022/07/19 11:15:18;;;;;;;9.38;8.48;;;27.60;57.50;;;;;;5050963;28;20044;-69
2022/07/19 11:18:03;;;;;;;8.80;8.00;;;27.60;57.50;;;;;;5052716;28;20392;-69
2022/07/19 11:20:30;;;;;;;10.65;9.55;;;27.60;57.50;;;;;;5052395;28;20368;-69
2022/07/19 11:22:57;;;;;;;10.48;9.48;;;27.60;57.50;;;;;;5052579;28;20013;-69
2022/07/19 11:25:36;;;;;;;10.77;9.80;;;27.60;57.50;;;;;;5051149;28;20028;-69
2022/07/19 11:28:02;;;;;;;9.90;8.95;;;27.60;57.50;;;;;;5051355;28;20017;-69
2022/07/19 11:30:29;;;;;;;11.05;10.00;;;27.70;57.50;;;;;;5052316;28;20029;-69
2022/07/19 11:33:03;;;;;;;11.63;10.52;;;27.60;57.50;;;;;;5052233;28;20021;-69
2022/07/19 11:35:29;;;;;;;11.32;10.15;;;27.60;57.50;;;;;;5052308;28;20049;-69
2022/07/19 11:37:56;;;;;;;10.82;9.82;;;27.60;57.50;;;;;;5051050;28;20430;-69
2022/07/19 11:40:22;;;;;;;12.32;11.13;;;27.60;57.50;;;;;;5051206;28;20048;-69
2022/07/19 11:42:48;;;;;;;13.30;11.82;;;27.60;57.50;;;;;;5051072;28;20517;-69
2022/07/19 11:45:21;;;;;;;13.63;12.10;;;27.60;57.50;;;;;;5051796;28;20072;-69
2022/07/19 11:47:49;;;;;;;16.35;14.63;;;27.60;57.50;;;;;;5052356;28;20024;-69
2022/07/19 11:50:16;;;;;;;16.95;14.57;;;27.70;57.50;;;;;;5050941;28;20035;-69
2022/07/19 11:52:50;;;;;;;18.05;14.95;;;27.60;57.50;;;;;;5052432;28;20024;-69
2022/07/19 11:55:18;;;;;;;17.05;13.70;;;27.60;57.50;;;;;;5051974;28;20017;-69
2022/07/19 11:57:43;;;;;;;18.48;15.75;;;27.60;57.40;;;;;;5050854;28;20025;-69
2022/07/19 12:00:10;;;;;;;16.73;14.88;;;27.60;57.40;;;;;;5051956;28;20033;-69
2022/07/19 12:02:57;;;;;;;16.10;14.40;;;27.60;57.40;;;;;;5052132;28;20025;-69
2022/07/19 12:05:23;;;;;;;18.70;15.60;;;27.60;57.40;;;;;;5051930;28;20028;-69
2022/07/19 12:07:49;;;;;;;17.40;15.55;;;27.60;57.40;;;;;;5055305;28;20029;-69
2022/07/19 12:10:38;;;;;;;19.55;16.25;;;27.60;57.50;;;;;;5056287;28;20028;-69
2022/07/19 12:13:04;;;;;;;18.45;16.13;;;27.60;57.40;;;;;;5054463;28;20095;-69
2022/07/19 12:15:52;;;;;;;19.25;15.32;;;27.60;57.40;;;;;;5055671;28;20031;-69
2022/07/19 12:18:20;;;;;;;17.58;15.48;;;27.60;57.40;;;;;;5055924;28;20048;-69
2022/07/19 12:21:15;;;;;;;18.63;15.48;;;27.60;57.40;;;;;;5054530;28;20025;-69
2022/07/19 12:23:41;;;;;;;18.30;15.20;;;27.70;57.40;;;;;;5054793;28;20043;-69
2022/07/19 12:26:06;;;;;;;17.77;14.95;;;27.70;57.40;;;;;;5054420;28;20495;-69
2022/07/19 12:28:32;;;;;;;18.73;15.13;;;27.60;57.30;;;;;;5055463;28;20032;-69
2022/07/19 12:31:04;;;;;;;19.13;15.30;;;27.60;58.30;;;;;;5054462;28;20033;-69
2022/07/19 12:33:30;;;;;;;;;;;27.60;57.30;;;;;;5071138;28;20071;-69
2022/07/19 12:35:56;;;;;;;18.30;15.35;;;27.70;57.40;;;;;;5055489;28;19905;-69
2022/07/19 12:38:31;;;;;;;18.05;15.10;;;27.60;57.30;;;;;;5054320;28;20082;-69
2022/07/19 12:41:07;;;;;;;16.35;14.65;;;27.60;57.30;;;;;;5055267;28;20020;-69
2022/07/19 12:43:32;;;;;;;18.00;14.68;;;27.60;57.30;;;;;;5054217;28;20399;-69
2022/07/19 12:46:01;;;;;;;16.02;13.90;;;27.60;57.30;;;;;;5050407;28;20014;-69
2022/07/19 12:48:26;;;;;;;16.55;13.85;;;27.60;57.40;;;;;;5036800;28;20041;-69
2022/07/19 12:50:52;;;;;;;16.25;14.43;;;27.60;57.30;;;;;;5055121;28;20025;-69
2022/07/19 12:53:18;;;;;;;17.00;14.18;;;27.60;57.30;;;;;;5055165;28;20075;-69